Terminal Aerodrome Forecast
Issued by NWS Green Bay, WI

Home | Current Version | Previous Version | Text Only | Print | Product List | Glossary Off
Versions: 1 2 3 4 5 6 7 8 9 10 11 12 13 14 15 16 17 18 19 20 21 22 23 24 25 26 27 28 29 30 31 32 33 34 35 36 37 38 39 40 41 42

127
FTUS43 KGRB 242326
TAFGRB
TAF
KGRB 242326Z 2500/2524 VRB03KT P6SM SCT250
     FM251600 19008KT P6SM FEW035 SCT120
     FM252000 19010G16KT P6SM SCT040 SCT120=

USA.gov is the U.S. government's official web portal to all federal, state and local government web resources and services.